createdAt,value
2019-03-10T00:02:00.270Z,100202.28
2019-03-10T00:04:34.866Z,100203.58
2019-03-10T00:07:06.418Z,100197.89
2019-03-10T00:09:37.724Z,100193.57
2019-03-10T00:12:09.079Z,100186.64
2019-03-10T00:14:40.719Z,100191.78
2019-03-10T00:17:11.982Z,100190.04
2019-03-10T00:19:43.274Z,100191.72
2019-03-10T00:22:17.276Z,100205.53
2019-03-10T00:24:51.517Z,100196.91
2019-03-10T00:27:23.649Z,100197.33
2019-03-10T00:29:54.890Z,100202.52
2019-03-10T00:32:26.523Z,100208.50
2019-03-10T00:34:58.127Z,100192.53
2019-03-10T00:37:29.361Z,100189.91
2019-03-10T00:40:57.458Z,100186.03
2019-03-10T00:44:31.589Z,100182.61
2019-03-10T00:47:52.762Z,100179.58
2019-03-10T00:51:34.343Z,100175.67
2019-03-10T00:54:05.817Z,100175.63
2019-03-10T00:56:37.383Z,100174.50
2019-03-10T00:59:08.771Z,100177.07
2019-03-10T01:01:40.048Z,100176.59
2019-03-10T01:04:11.611Z,100171.45
2019-03-10T01:06:46.396Z,100167.66
2019-03-10T01:09:17.661Z,100164.67
2019-03-10T01:11:50.249Z,100163.77
2019-03-10T01:14:22.092Z,100160.83
2019-03-10T01:16:54.041Z,100162.61
2019-03-10T01:19:27.731Z,100158.32
2019-03-10T01:22:01.315Z,100153.55
2019-03-10T01:24:32.679Z,100158.34
2019-03-10T01:27:03.947Z,100154.03
2019-03-10T01:29:35.248Z,100139.78
2019-03-10T01:33:13.708Z,100141.48
2019-03-10T01:35:45.851Z,100139.78
2019-03-10T01:38:17.417Z,100152.77
2019-03-10T01:40:49.375Z,100153.20
2019-03-10T01:43:21.016Z,100152.41
2019-03-10T01:45:52.653Z,100149.81
2019-03-10T01:48:24.070Z,100148.94
2019-03-10T01:50:55.574Z,100138.16
2019-03-10T01:53:26.974Z,100135.98
2019-03-10T01:55:59.224Z,100135.14
2019-03-10T01:58:30.894Z,100126.92
2019-03-10T02:01:02.140Z,100132.97
2019-03-10T02:03:33.966Z,100123.46
2019-03-10T02:06:06.102Z,100124.31
2019-03-10T02:08:37.806Z,100121.31
2019-03-10T02:11:09.112Z,100111.78
2019-03-10T02:13:40.433Z,100091.03
2019-03-10T02:16:12.082Z,100095.77
2019-03-10T02:18:43.355Z,100097.50
2019-03-10T02:21:14.645Z,100093.16
2019-03-10T02:23:46.259Z,100089.28
2019-03-10T02:26:17.709Z,100082.34
2019-03-10T02:28:49.059Z,100075.86
2019-03-10T02:31:21.051Z,100070.67
2019-03-10T02:33:52.636Z,100071.09
2019-03-10T02:36:24.000Z,100060.28
2019-03-10T02:38:55.583Z,100061.14
2019-03-10T02:41:27.229Z,100058.55
2019-03-10T02:44:01.947Z,100052.50
2019-03-10T02:46:33.463Z,100050.33
2019-03-10T02:49:04.709Z,100045.14
2019-03-10T02:51:38.436Z,100042.55
2019-03-10T02:54:10.091Z,100045.58
2019-03-10T02:56:41.733Z,100041.23
2019-03-10T02:59:16.080Z,100034.75
2019-03-10T03:01:48.004Z,100036.04
2019-03-10T03:04:19.226Z,100036.91
2019-03-10T03:06:50.599Z,100028.69
2019-03-10T03:09:22.192Z,100031.73
2019-03-10T03:11:53.796Z,100036.50
2019-03-10T03:14:25.171Z,100035.62
2019-03-10T03:16:56.409Z,100047.73
2019-03-10T03:19:27.989Z,100054.23
2019-03-10T03:21:59.275Z,100048.59
2019-03-10T03:24:30.831Z,100039.53
2019-03-10T03:27:02.837Z,100046.45
2019-03-10T03:29:34.193Z,100045.56
2019-03-10T03:32:05.646Z,100033.89
2019-03-10T03:34:37.071Z,100016.16
2019-03-10T03:37:10.366Z,100015.28
2019-03-10T03:39:48.607Z,100010.55
2019-03-10T03:42:19.980Z,99990.62
2019-03-10T03:44:51.639Z,100000.99
2019-03-10T03:47:23.206Z,100001.02
2019-03-10T03:49:54.762Z,99995.38
2019-03-10T03:52:26.452Z,99997.98
2019-03-10T03:54:59.621Z,100005.77
2019-03-10T03:57:31.284Z,99984.98
2019-03-10T04:00:02.612Z,99980.67
2019-03-10T04:02:39.735Z,99978.94
2019-03-10T04:05:11.265Z,99972.02
2019-03-10T04:07:42.958Z,99977.20
2019-03-10T04:10:14.672Z,99981.54
2019-03-10T04:12:46.278Z,99981.98
2019-03-10T04:15:17.652Z,99984.13
2019-03-10T04:17:49.268Z,99973.77
2019-03-10T04:20:21.040Z,99969.86
2019-03-10T04:22:52.393Z,99971.16
2019-03-10T04:25:23.734Z,99964.23
2019-03-10T04:27:54.988Z,99958.59
2019-03-10T04:30:26.711Z,99951.69
2019-03-10T04:32:57.990Z,99937.86
2019-03-10T04:35:29.258Z,99941.75
2019-03-10T04:38:00.539Z,99938.70
2019-03-10T04:40:32.152Z,99940.87
2019-03-10T04:43:03.408Z,99927.47
2019-03-10T04:45:34.730Z,99921.39
2019-03-10T04:48:06.272Z,99919.24
2019-03-10T04:50:37.534Z,99913.20
2019-03-10T04:53:09.241Z,99901.52
2019-03-10T04:56:02.487Z,99895.03
2019-03-10T04:58:35.278Z,99894.57
2019-03-10T05:01:06.951Z,99891.98
2019-03-10T05:03:38.998Z,99885.95
2019-03-10T05:06:11.107Z,99880.75
2019-03-10T05:08:43.131Z,99878.16
2019-03-10T05:11:14.746Z,99867.75
2019-03-10T05:13:46.082Z,99855.22
2019-03-10T05:16:17.695Z,99851.75
2019-03-10T05:18:48.912Z,99856.52
2019-03-10T05:21:20.568Z,99849.58
2019-03-10T05:23:52.154Z,99855.22
2019-03-10T05:26:23.437Z,99842.22
2019-03-10T05:28:55.692Z,99838.34
2019-03-10T05:31:27.260Z,99845.70
2019-03-10T05:33:58.842Z,99841.80
2019-03-10T05:36:30.187Z,99834.02
2019-03-10T05:39:01.773Z,99824.50
2019-03-10T05:41:34.056Z,99821.50
2019-03-10T05:44:05.439Z,99817.99
2019-03-10T05:46:36.985Z,99815.44
2019-03-10T05:49:08.559Z,99814.99
2019-03-10T05:51:40.200Z,99810.23
2019-03-10T05:54:11.436Z,99794.65
2019-03-10T05:56:42.669Z,99798.55
2019-03-10T05:59:14.030Z,99795.97
2019-03-10T06:01:47.154Z,99796.81
2019-03-10T06:04:18.471Z,99791.62
2019-03-10T06:06:49.783Z,99798.98
2019-03-10T06:09:21.451Z,99790.31
2019-03-10T06:11:52.818Z,99792.47
2019-03-10T06:14:24.111Z,99787.30
2019-03-10T06:16:55.708Z,99783.82
2019-03-10T06:19:27.584Z,99779.94
2019-03-10T06:21:59.648Z,99774.75
2019-03-10T06:24:31.140Z,99774.31
2019-03-10T06:27:02.419Z,99773.02
2019-03-10T06:29:33.668Z,99770.84
2019-03-10T06:32:05.225Z,99762.14
2019-03-10T06:34:36.793Z,99759.13
2019-03-10T06:37:08.404Z,99763.44
2019-03-10T06:39:39.855Z,99756.09
2019-03-10T06:42:11.448Z,99752.59
2019-03-10T06:44:43.405Z,99756.00
2019-03-10T06:47:14.638Z,99753.38
2019-03-10T06:49:45.967Z,99747.27
2019-03-10T06:52:17.303Z,99734.72
2019-03-10T06:54:48.565Z,99731.27
2019-03-10T06:57:20.046Z,99726.89
2019-03-10T06:59:51.348Z,99724.67
2019-03-10T07:02:22.629Z,99716.84
2019-03-10T07:04:54.205Z,99712.09
2019-03-10T07:07:26.537Z,99709.91
2019-03-10T07:09:58.128Z,99702.08
2019-03-10T07:12:29.417Z,99700.27
2019-03-10T07:15:00.894Z,99688.14
2019-03-10T07:17:32.159Z,99683.34
2019-03-10T07:20:03.813Z,99677.25
2019-03-10T07:22:35.404Z,99674.19
2019-03-10T07:25:07.783Z,99673.27
2019-03-10T07:27:54.257Z,99676.73
2019-03-10T07:30:36.855Z,99675.83
2019-03-10T07:33:30.251Z,99674.03
2019-03-10T07:36:17.080Z,99673.10
2019-03-10T07:39:10.886Z,99653.56
2019-03-10T07:41:50.763Z,99652.16
2019-03-10T07:44:44.431Z,99646.88
2019-03-10T07:47:40.722Z,99652.84
2019-03-10T07:50:23.039Z,99638.85
2019-03-10T07:53:13.588Z,99642.19
2019-03-10T07:56:03.749Z,99641.24
2019-03-10T07:59:00.268Z,99635.05
2019-03-10T08:02:02.862Z,99624.54
2019-03-10T08:04:46.365Z,99621.84
2019-03-10T08:07:22.021Z,99618.77
2019-03-10T08:10:03.310Z,99621.76
2019-03-10T08:12:52.093Z,99611.82
2019-03-10T08:15:45.217Z,99615.67
2019-03-10T08:18:38.182Z,99610.66
2019-03-10T08:21:31.670Z,99609.22
2019-03-10T08:24:21.504Z,99599.38
2019-03-10T08:27:17.995Z,99599.38
2019-03-10T08:30:14.152Z,99601.55
2019-03-10T08:33:14.008Z,99602.23
2019-03-10T08:36:03.417Z,99588.78
2019-03-10T08:38:48.080Z,99586.22
2019-03-10T08:41:38.030Z,99582.41
2019-03-10T08:44:30.902Z,99577.73
2019-03-10T08:47:10.994Z,99572.38
2019-03-10T08:50:01.138Z,99567.27
2019-03-10T08:52:46.231Z,99568.23
2019-03-10T08:55:49.090Z,99571.36
2019-03-10T08:58:37.094Z,99554.06
2019-03-10T09:01:31.011Z,99554.80
2019-03-10T09:04:37.753Z,99549.16
2019-03-10T09:07:31.236Z,99561.16
2019-03-10T09:10:21.196Z,99557.09
2019-03-10T09:13:11.318Z,99546.26
2019-03-10T09:16:11.446Z,99542.83
2019-03-10T09:19:01.570Z,99542.83
2019-03-10T09:22:11.076Z,99531.56
2019-03-10T09:24:51.191Z,99523.27
2019-03-10T09:27:41.355Z,99522.50
2019-03-10T09:30:31.615Z,99522.93
2019-03-10T09:33:31.215Z,99518.98
2019-03-10T09:36:31.419Z,99514.27
2019-03-10T09:39:20.539Z,99516.09
2019-03-10T09:42:13.708Z,99509.64
2019-03-10T09:45:00.288Z,99514.70
2019-03-10T09:47:45.797Z,99503.33
2019-03-10T09:50:35.259Z,99490.98
2019-03-10T09:53:23.299Z,99490.87
2019-03-10T09:56:08.569Z,99484.13
2019-03-10T09:58:52.406Z,99482.78
2019-03-10T10:01:42.274Z,99478.89
2019-03-10T10:04:35.363Z,99478.61
2019-03-10T10:07:24.824Z,99471.55
2019-03-10T10:10:31.000Z,99461.02
2019-03-10T10:13:21.167Z,99454.69
2019-03-10T10:16:17.116Z,99444.08
2019-03-10T10:19:12.385Z,99434.89
2019-03-10T10:21:59.856Z,99430.37
2019-03-10T10:24:50.113Z,99419.59
2019-03-10T10:27:38.836Z,99416.05
2019-03-10T10:30:31.382Z,99412.42
2019-03-10T10:33:15.560Z,99416.33
2019-03-10T10:36:04.950Z,99422.55
2019-03-10T10:39:04.887Z,99413.25
2019-03-10T10:41:59.247Z,99395.50
2019-03-10T10:44:48.232Z,99390.91
2019-03-10T10:47:30.764Z,99386.52
2019-03-10T10:50:15.442Z,99390.11
2019-03-10T10:53:04.297Z,99379.00
2019-03-10T10:55:54.356Z,99360.72
2019-03-10T10:58:47.358Z,99358.01
2019-03-10T11:01:28.264Z,99348.64
2019-03-10T11:04:17.093Z,99334.49
2019-03-10T11:07:04.265Z,99334.53
2019-03-10T11:09:58.298Z,99337.22
2019-03-10T11:12:47.658Z,99315.75
2019-03-10T11:15:49.872Z,99303.37
2019-03-10T11:18:32.064Z,99308.14
2019-03-10T11:21:28.774Z,99303.70
2019-03-10T11:24:11.230Z,99304.98
2019-03-10T11:27:01.371Z,99296.52
2019-03-10T11:29:55.111Z,99290.61
2019-03-10T11:32:43.932Z,99284.00
2019-03-10T11:35:36.342Z,99278.80
2019-03-10T11:38:29.275Z,99278.45
2019-03-10T11:41:13.227Z,99274.02
2019-03-10T11:44:02.716Z,99262.95
2019-03-10T11:46:56.215Z,99258.12
2019-03-10T11:49:42.341Z,99254.37
2019-03-10T11:52:32.741Z,99245.98
2019-03-10T11:55:24.418Z,99245.30
2019-03-10T11:58:21.097Z,99239.56
2019-03-10T12:01:01.829Z,99240.95
2019-03-10T12:03:50.829Z,99234.35
2019-03-10T12:06:34.909Z,99231.13
2019-03-10T12:09:37.242Z,99230.33
2019-03-10T12:12:08.970Z,99228.91
2019-03-10T12:14:41.011Z,99222.20
2019-03-10T12:17:12.868Z,99217.13
2019-03-10T12:19:44.935Z,99204.34
2019-03-10T12:22:16.173Z,99199.16
2019-03-10T12:24:48.203Z,99193.57
2019-03-10T12:27:19.564Z,99195.73
2019-03-10T12:29:51.135Z,99194.66
2019-03-10T12:32:23.157Z,99183.72
2019-03-10T12:34:54.722Z,99176.62
2019-03-10T12:37:25.983Z,99165.31
2019-03-10T12:39:57.206Z,99159.30
2019-03-10T12:42:28.955Z,99161.94
2019-03-10T12:45:01.039Z,99170.06
2019-03-10T12:47:32.367Z,99154.25
2019-03-10T12:50:03.615Z,99149.78
2019-03-10T12:52:35.219Z,99138.67
2019-03-10T12:55:06.564Z,99133.20
2019-03-10T12:57:37.832Z,99127.12
2019-03-10T13:00:10.040Z,99124.52
2019-03-10T13:02:41.265Z,99108.80
2019-03-10T13:05:13.216Z,99095.22
2019-03-10T13:07:44.821Z,99084.95
2019-03-10T13:10:16.802Z,99083.53
2019-03-10T13:12:48.539Z,99077.13
2019-03-10T13:15:20.177Z,99078.82
2019-03-10T13:17:51.748Z,99072.05
2019-03-10T13:20:28.279Z,99064.23
2019-03-10T13:22:56.571Z,99065.72
2019-03-10T13:25:28.441Z,99050.93
2019-03-10T13:27:59.671Z,99046.45
2019-03-10T13:30:31.619Z,99032.91
2019-03-10T13:33:02.952Z,99037.48
2019-03-10T13:35:34.623Z,99035.98
2019-03-10T13:38:06.193Z,99037.53
2019-03-10T13:40:38.042Z,99027.72
2019-03-10T13:43:09.315Z,99021.40
2019-03-10T13:45:40.930Z,99013.01
2019-03-10T13:48:12.513Z,99010.52
2019-03-10T13:50:43.822Z,99003.84
2019-03-10T13:53:15.099Z,99002.27
2019-03-10T13:55:46.746Z,99005.58
2019-03-10T13:58:18.396Z,99005.20
2019-03-10T14:00:49.648Z,98998.70
2019-03-10T14:03:21.748Z,98993.37
2019-03-10T14:05:52.949Z,98990.98
2019-03-10T14:08:24.650Z,98985.91
2019-03-10T14:10:56.626Z,98978.49
2019-03-10T14:19:20.203Z,98959.41
2019-03-10T14:21:51.547Z,98950.84
2019-03-10T14:24:22.844Z,98950.66
2019-03-10T14:26:54.483Z,98950.49
2019-03-10T14:29:26.568Z,98946.61
2019-03-10T14:31:57.997Z,98938.12
2019-03-10T14:34:29.676Z,98936.40
2019-03-10T14:37:00.973Z,98939.87
2019-03-10T14:39:32.346Z,98935.58
2019-03-10T14:42:03.693Z,98934.67
2019-03-10T14:44:35.397Z,98936.83
2019-03-10T14:47:06.686Z,98933.37
2019-03-10T14:49:38.718Z,98930.66
2019-03-10T14:52:09.994Z,98920.72
2019-03-10T14:54:41.278Z,98907.28
2019-03-10T14:57:13.258Z,98908.69
2019-03-10T14:59:45.364Z,98909.05
2019-03-10T15:02:16.643Z,98909.01
2019-03-10T15:04:48.249Z,98905.50
2019-03-10T15:07:20.579Z,98903.76
2019-03-10T15:09:52.469Z,98900.09
2019-03-10T15:12:23.872Z,98893.33
2019-03-10T15:14:55.497Z,98905.64
2019-03-10T15:17:26.736Z,98897.71
2019-03-10T15:19:58.393Z,98900.20
2019-03-10T15:22:29.739Z,98900.73
2019-03-10T15:25:01.048Z,98907.33
2019-03-10T15:27:32.814Z,98899.55
2019-03-10T15:30:04.127Z,98906.78
2019-03-10T15:32:35.441Z,98898.64
2019-03-10T15:35:07.328Z,98882.52
2019-03-10T15:37:38.641Z,98881.22
2019-03-10T15:40:12.783Z,98861.84
2019-03-10T15:42:44.756Z,98848.94
2019-03-10T15:45:16.029Z,98828.70
2019-03-10T15:47:47.567Z,98827.16
2019-03-10T15:50:22.678Z,98826.25
2019-03-10T15:52:53.938Z,98833.68
2019-03-10T15:55:25.837Z,98826.83
2019-03-10T15:57:57.543Z,98837.76
2019-03-10T16:00:29.290Z,98852.26
2019-03-10T16:03:00.567Z,98856.95
2019-03-10T16:05:33.134Z,98864.25
2019-03-10T16:08:04.504Z,98860.75
2019-03-10T16:10:36.271Z,98866.83
2019-03-10T16:13:07.655Z,98865.59
2019-03-10T16:15:39.258Z,98868.98
2019-03-10T16:18:10.792Z,98869.97
2019-03-10T16:20:42.087Z,98877.88
2019-03-10T16:23:13.669Z,98891.16
2019-03-10T16:25:45.913Z,98896.56
2019-03-10T16:28:17.231Z,98902.73
2019-03-10T16:30:48.501Z,98906.39
2019-03-10T16:33:19.833Z,98908.41
2019-03-10T16:35:51.108Z,98912.69
2019-03-10T16:38:22.464Z,98913.98
2019-03-10T16:40:54.108Z,98914.02
2019-03-10T16:43:25.430Z,98932.53
2019-03-10T16:45:57.642Z,98927.43
2019-03-10T16:48:28.931Z,98942.19
2019-03-10T16:51:00.552Z,98945.31
2019-03-10T16:53:31.934Z,98941.83
2019-03-10T16:56:03.459Z,98941.45
2019-03-10T16:58:34.831Z,98950.11
2019-03-10T17:01:06.116Z,98951.44
2019-03-10T17:03:37.616Z,98967.88
2019-03-10T17:06:09.334Z,98982.55
2019-03-10T17:08:40.961Z,98990.34
2019-03-10T17:11:12.491Z,98997.77
2019-03-10T17:13:43.821Z,99003.39
2019-03-10T17:16:16.405Z,99019.72
2019-03-10T17:18:47.936Z,99024.50
2019-03-10T17:21:19.584Z,99029.23
2019-03-10T17:23:50.863Z,99023.23
2019-03-10T17:26:22.496Z,99038.38
2019-03-10T17:28:53.916Z,99050.83
2019-03-10T17:31:25.272Z,99050.49
2019-03-10T17:33:57.100Z,99047.01
2019-03-10T17:36:28.761Z,99069.03
2019-03-10T17:39:00.189Z,99084.52
2019-03-10T17:41:31.589Z,99091.02
2019-03-10T17:44:03.198Z,99094.48
2019-03-10T17:46:34.865Z,99104.40
2019-03-10T17:49:06.425Z,99115.16
2019-03-10T17:51:38.007Z,99130.27
2019-03-10T17:54:09.298Z,99144.48
2019-03-10T17:56:40.851Z,99154.84
2019-03-10T17:59:12.603Z,99143.63
2019-03-10T18:01:43.863Z,99152.23
2019-03-10T18:04:15.284Z,99158.71
2019-03-10T18:06:46.839Z,99169.47
2019-03-10T18:09:18.126Z,99184.55
2019-03-10T18:11:49.381Z,99206.53
2019-03-10T18:14:21.245Z,99217.28
2019-03-10T18:16:52.538Z,99228.48
2019-03-10T18:19:23.821Z,99242.69
2019-03-10T18:21:55.131Z,99252.58
2019-03-10T18:24:26.421Z,99265.04
2019-03-10T18:26:58.307Z,99276.25
2019-03-10T18:29:29.747Z,99293.00
2019-03-10T18:32:02.121Z,99307.19
2019-03-10T18:34:33.541Z,99328.27
2019-03-10T18:37:05.229Z,99355.34
2019-03-10T18:39:36.823Z,99379.41
2019-03-10T18:42:08.288Z,99394.45
2019-03-10T18:44:39.745Z,99417.26
2019-03-10T18:47:11.489Z,99438.32
2019-03-10T18:49:42.698Z,99452.11
2019-03-10T18:52:14.419Z,99470.58
2019-03-10T18:54:46.037Z,99481.75
2019-03-10T18:57:17.304Z,99502.42
2019-03-10T18:59:48.607Z,99519.63
2019-03-10T19:02:20.369Z,99535.52
2019-03-10T19:04:51.635Z,99543.31
2019-03-10T19:07:23.516Z,99562.62
2019-03-10T19:09:55.152Z,99579.02
2019-03-10T19:12:26.870Z,99590.56
2019-03-10T19:14:58.188Z,99596.17
2019-03-10T19:17:30.149Z,99604.37
2019-03-10T19:20:01.357Z,99616.87
2019-03-10T19:22:32.839Z,99620.24
2019-03-10T19:25:04.170Z,99628.45
2019-03-10T19:27:35.827Z,99640.52
2019-03-10T19:30:09.731Z,99643.96
2019-03-10T19:32:41.306Z,99653.81
2019-03-10T19:35:12.851Z,99653.39
2019-03-10T19:37:44.241Z,99666.31
2019-03-10T19:40:16.629Z,99672.33
2019-03-10T19:42:49.483Z,99684.41
2019-03-10T19:45:20.880Z,99697.80
2019-03-10T19:47:52.404Z,99697.38
2019-03-10T19:50:23.939Z,99706.84
2019-03-10T19:52:55.266Z,99710.66
2019-03-10T19:55:26.910Z,99715.43
2019-03-10T19:57:58.219Z,99722.75
2019-03-10T20:00:31.310Z,99728.41
2019-03-10T20:03:03.630Z,99741.72
2019-03-10T20:05:35.271Z,99747.38
2019-03-10T20:08:07.319Z,99758.98
2019-03-10T20:10:39.277Z,99768.44
2019-03-10T20:13:11.518Z,99770.60
2019-03-10T20:15:43.930Z,99780.94
2019-03-10T20:18:15.292Z,99783.98
2019-03-10T20:20:46.949Z,99798.19
2019-03-10T20:23:18.446Z,99809.36
2019-03-10T20:25:50.021Z,99814.53
2019-03-10T20:28:21.437Z,99817.13
2019-03-10T20:30:52.846Z,99827.44
2019-03-10T20:33:24.226Z,99833.05
2019-03-10T20:35:55.564Z,99846.83
2019-03-10T20:38:27.062Z,99844.69
2019-03-10T20:40:58.316Z,99862.34
2019-03-10T20:43:29.755Z,99868.75
2019-03-10T20:46:01.462Z,99875.23
2019-03-10T20:48:32.980Z,99877.36
2019-03-10T20:51:05.414Z,99882.07
2019-03-10T20:53:36.808Z,99886.81
2019-03-10T20:56:08.073Z,99890.69
2019-03-10T20:58:39.421Z,99897.17
2019-03-10T21:01:11.032Z,99907.95
2019-03-10T21:03:42.334Z,99914.77
2019-03-10T21:06:13.742Z,99917.34
2019-03-10T21:08:46.389Z,99918.28
2019-03-10T21:11:17.659Z,99918.28
2019-03-10T21:13:48.971Z,99924.70
2019-03-10T21:16:20.391Z,99932.03
2019-03-10T21:18:51.694Z,99927.25
2019-03-10T21:21:23.180Z,99945.36
2019-03-10T21:23:55.431Z,99952.27
2019-03-10T21:26:27.110Z,99965.66
2019-03-10T21:28:58.387Z,99969.92
2019-03-10T21:31:29.909Z,99975.55
2019-03-10T21:34:01.380Z,99968.22
2019-03-10T21:36:32.682Z,99976.80
2019-03-10T21:39:04.761Z,99971.67
2019-03-10T21:41:36.036Z,99980.29
2019-03-10T21:44:07.365Z,99988.03
2019-03-10T21:46:39.137Z,99998.81
2019-03-10T21:49:10.423Z,99995.30
2019-03-10T21:51:41.692Z,100000.49
2019-03-10T21:54:13.494Z,100013.44
2019-03-10T21:56:45.558Z,100009.11
2019-03-10T21:59:16.873Z,100020.28
2019-03-10T22:01:48.957Z,100018.53
2019-03-10T22:04:20.633Z,100026.70
2019-03-10T22:06:52.223Z,100026.66
2019-03-10T22:09:23.656Z,100018.92
2019-03-10T22:11:55.340Z,100022.41
2019-03-10T22:14:28.764Z,100027.19
2019-03-10T22:17:00.191Z,100037.03
2019-03-10T22:19:31.552Z,100039.19
2019-03-10T22:22:03.095Z,100035.73
2019-03-10T22:24:35.136Z,100043.48
2019-03-10T22:27:06.739Z,100047.77
2019-03-10T22:29:37.984Z,100047.36
2019-03-10T22:32:09.782Z,100047.73
2019-03-10T22:34:41.106Z,100050.73
2019-03-10T22:37:12.700Z,100057.23
2019-03-10T22:39:44.641Z,100058.44
2019-03-10T22:42:16.011Z,100065.35
2019-03-10T22:44:47.380Z,100070.09
2019-03-10T22:47:19.129Z,100069.23
2019-03-10T22:49:50.590Z,100077.77
2019-03-10T22:52:21.958Z,100078.19
2019-03-10T22:54:53.350Z,100076.44
2019-03-10T22:57:25.058Z,100075.64
2019-03-10T22:59:57.360Z,100080.39
2019-03-10T23:02:29.017Z,100080.81
2019-03-10T23:05:00.572Z,100081.68
2019-03-10T23:07:33.615Z,100080.89
2019-03-10T23:10:06.248Z,100089.84
2019-03-10T23:12:37.517Z,100082.52
2019-03-10T23:15:09.753Z,100089.05
2019-03-10T23:17:41.429Z,100088.21
2019-03-10T23:20:14.143Z,100090.34
2019-03-10T23:22:46.122Z,100097.63
2019-03-10T23:25:23.820Z,100094.67
2019-03-10T23:27:56.262Z,100098.95
2019-03-10T23:30:27.523Z,100095.55
2019-03-10T23:32:59.290Z,100105.03
2019-03-10T23:35:31.371Z,100114.87
2019-03-10T23:38:03.108Z,100106.70
2019-03-10T23:40:35.004Z,100115.33
2019-03-10T23:43:06.582Z,100104.16
2019-03-10T23:45:38.289Z,100115.41
2019-03-10T23:48:09.597Z,100114.53
2019-03-10T23:50:42.745Z,100111.99
2019-03-10T23:53:14.031Z,100117.57
2019-03-10T23:55:45.342Z,100123.03
2019-03-10T23:58:16.929Z,100132.53
